Time;durP1;ratioP1;P1;durP2;ratioP2;P2;SDS_P1;SDS_P2;PMS_P1;PMS_P2;Temp;Humidity;BMP_temperature;BMP_pressure;BME280_temperature;BME280_humidity;BME280_pressure;Samples;Min_cycle;Max_cycle;Signal;HPM_P1;HPM_P2
2022/05/24 00:00:24;;;;;;;5.27;2.13;;;18.30;1.00;;;18.49;48.96;99506.13;5026050;28;20609;-68
2022/05/24 00:02:54;;;;;;;2.43;2.20;;;18.30;1.00;;;18.49;49.11;99506.13;5027334;28;20450;-68
2022/05/24 00:05:25;;;;;;;2.93;2.37;;;18.20;1.00;;;18.53;49.17;99504.44;5039970;28;20450;-67
2022/05/24 00:07:56;;;;;;;3.80;3.40;;;18.30;1.10;;;18.52;49.07;99511.81;5047335;28;20877;-68
2022/05/24 00:10:30;;;;;;;4.20;2.20;;;18.30;1.20;;;18.51;49.10;99498.41;5031292;28;20454;-68
2022/05/24 00:13:00;;;;;;;3.23;2.93;;;18.30;1.40;;;18.53;49.27;99485.25;5030367;28;20514;-69
2022/05/24 00:15:31;;;;;;;2.30;2.10;;;18.30;1.50;;;18.50;49.25;99492.09;5043143;28;20417;-69
2022/05/24 00:18:04;;;;;;;3.57;2.73;;;18.30;1.60;;;18.50;49.34;99492.09;5041866;28;20447;-70
2022/05/24 00:20:37;;;;;;;3.13;2.83;;;18.20;1.90;;;18.48;49.62;99494.34;5039811;28;21034;-70
2022/05/24 00:23:09;;;;;;;2.80;2.60;;;18.20;2.10;;;18.45;49.47;99494.88;5040605;28;20567;-69
2022/05/24 00:25:42;;;;;;;4.30;2.93;;;18.20;2.00;;;18.34;49.79;99487.91;5046620;28;21015;-69
2022/05/24 00:28:13;;;;;;;2.83;2.53;;;18.10;2.20;;;18.43;49.84;99486.16;5039413;28;20658;-69
2022/05/24 00:30:44;;;;;;;4.30;2.67;;;18.20;2.60;;;18.32;49.92;99484.63;5021272;28;20554;-69
2022/05/24 00:33:13;;;;;;;4.83;3.23;;;18.10;2.50;;;18.27;50.01;99479.19;5040988;28;20462;-69
2022/05/24 00:35:43;;;;;;;4.23;2.83;;;18.00;2.70;;;18.28;49.98;99482.72;5038252;28;20811;-69
2022/05/24 00:38:17;;;;;;;2.80;2.30;;;18.00;3.00;;;18.20;50.17;99492.38;5045174;28;20443;-68
2022/05/24 00:41:03;;;;;;;2.67;2.37;;;18.00;3.60;;;18.27;49.97;99487.38;5039045;28;20467;-68
2022/05/24 00:43:38;;;;;;;3.90;2.70;;;18.00;3.30;;;18.28;50.14;99475.34;5024952;28;20448;-68
2022/05/24 00:46:18;;;;;;;4.30;2.57;;;18.00;3.50;;;18.33;50.25;99469.81;5043542;28;20702;-69
2022/05/24 00:48:53;;;;;;;4.20;2.50;;;18.10;3.40;;;18.38;49.95;99478.00;5039255;28;20419;-69
2022/05/24 00:51:32;;;;;;;4.73;2.60;;;18.10;3.50;;;18.39;49.66;99476.91;5048472;28;20454;-69
2022/05/24 00:54:02;;;;;;;4.93;2.60;;;18.10;3.30;;;18.29;50.15;99467.94;5045532;28;20516;-69
2022/05/24 00:56:54;;;;;;;3.27;2.93;;;18.10;3.50;;;18.32;50.08;99473.66;5042541;28;20505;-69
2022/05/24 00:59:41;;;;;;;4.53;2.63;;;18.10;3.70;;;18.33;50.28;99472.56;5042100;28;20592;-70
2022/05/24 01:02:10;;;;;;;2.90;2.60;;;18.10;3.80;;;18.23;50.32;99464.44;5021320;28;20444;-68
2022/05/24 01:04:42;;;;;;;3.33;2.40;;;18.10;3.90;;;18.25;50.55;99467.69;5041221;28;20412;-68
2022/05/24 01:07:11;;;;;;;6.87;2.70;;;18.00;4.00;;;18.24;50.50;99474.28;5035463;28;20463;-70
2022/05/24 01:09:48;;;;;;;2.97;2.50;;;18.00;4.10;;;18.34;50.27;99476.94;5049924;28;20431;-68
2022/05/24 01:12:27;;;;;;;3.63;3.07;;;18.10;4.20;;;18.25;50.41;99478.63;5042176;28;20447;-68
2022/05/24 01:15:00;;;;;;;3.30;2.87;;;18.10;4.40;;;18.26;50.47;99469.31;5046117;28;20508;-68
2022/05/24 01:17:30;;;;;;;3.00;2.70;;;18.00;4.40;;;18.20;50.65;99474.00;5042756;28;20442;-68
2022/05/24 01:20:00;;;;;;;2.87;2.63;;;18.00;4.60;;;18.30;50.52;99469.59;5045263;28;20439;-69
2022/05/24 01:23:13;;;;;;;3.20;2.70;;;18.00;4.60;;;18.40;50.40;99475.75;5047855;28;20446;-69
2022/05/24 01:25:58;;;;;;;3.27;2.50;;;18.10;5.00;;;18.27;50.66;99476.44;5010905;28;20564;-68
2022/05/24 01:28:36;;;;;;;3.90;2.63;;;18.10;4.90;;;18.24;50.75;99482.50;5049783;28;20413;-69
2022/05/24 01:31:07;;;;;;;4.37;2.33;;;18.00;4.90;;;18.20;51.24;99478.69;5044517;28;20468;-69
2022/05/24 01:36:26;;;;;;;5.37;3.17;;;18.00;5.30;;;18.33;50.75;99479.97;5047828;28;20448;-68
2022/05/24 01:39:02;;;;;;;3.40;3.10;;;18.10;5.30;;;18.34;50.75;99476.94;5045243;28;20465;-69
2022/05/24 01:41:37;;;;;;;3.13;2.83;;;18.10;5.60;;;18.31;50.83;99477.50;5043241;28;20542;-69
2022/05/24 01:44:09;;;;;;;2.90;2.70;;;18.10;5.50;;;18.32;50.76;99473.66;5047351;28;20500;-69
2022/05/24 01:46:47;;;;;;;3.90;2.57;;;18.10;5.50;;;18.37;50.89;99479.09;5025920;28;20505;-69
2022/05/24 01:49:22;;;;;;;3.53;3.00;;;18.10;5.70;;;18.37;50.99;99490.03;5042749;28;20439;-69
2022/05/24 01:51:58;;;;;;;4.10;2.70;;;18.10;5.70;;;18.37;50.93;99487.31;5043669;28;20521;-69
2022/05/24 01:54:30;;;;;;;3.60;3.30;;;18.10;5.80;;;18.26;51.08;99485.75;5041324;28;20458;-69
2022/05/24 01:57:07;;;;;;;3.50;2.57;;;18.10;5.80;;;18.23;50.98;99489.91;5042343;28;20530;-68
2022/05/24 01:59:41;;;;;;;4.47;2.60;;;18.00;6.10;;;18.32;50.84;99487.34;5049055;28;20405;-68
2022/05/24 02:02:10;;;;;;;3.70;3.40;;;18.10;6.20;;;18.24;51.33;99483.31;5052554;28;20437;-69
2022/05/24 02:04:39;;;;;;;2.83;2.53;;;18.10;6.50;;;18.25;51.71;99484.94;5049053;28;21055;-68
2022/05/24 02:07:13;;;;;;;3.30;3.00;;;18.00;6.80;;;18.32;51.67;99486.53;5047363;28;20439;-68
2022/05/24 02:09:46;;;;;;;3.90;3.57;;;18.10;7.10;;;18.12;52.27;99484.78;5025798;28;20520;-68
2022/05/24 02:12:22;;;;;;;2.97;2.67;;;18.00;7.50;;;18.08;53.16;99483.72;5044924;28;20449;-69
2022/05/24 02:15:00;;;;;;;3.53;3.00;;;17.90;8.60;;;18.04;53.20;99482.66;5046776;28;20440;-69
2022/05/24 02:17:39;;;;;;;7.20;3.23;;;17.80;9.10;;;18.11;53.48;99494.91;5050295;28;20442;-69
2022/05/24 02:20:13;;;;;;;4.40;2.87;;;17.90;10.00;;;18.00;53.81;99487.88;5048399;28;20413;-69
2022/05/24 02:22:43;;;;;;;5.13;2.87;;;17.80;10.50;;;17.83;54.44;99495.66;5042012;28;20489;-69
2022/05/24 02:25:20;;;;;;;5.10;3.30;;;17.70;11.30;;;17.75;54.71;99493.53;5047487;28;21077;-69
2022/05/24 02:27:50;;;;;;;4.03;3.07;;;17.60;12.20;;;17.90;54.56;99487.94;5032222;28;20449;-69
2022/05/24 02:30:24;;;;;;;6.63;3.03;;;17.60;13.40;;;17.74;55.19;99484.50;5036156;28;20404;-68
2022/05/24 02:32:53;;;;;;;4.87;2.93;;;17.60;14.10;;;17.78;54.69;99482.81;5044697;28;20439;-68
2022/05/24 02:35:24;;;;;;;3.00;2.80;;;17.60;13.80;;;17.81;54.75;99490.44;5041840;28;20413;-68
2022/05/24 02:37:53;;;;;;;3.70;3.23;;;17.60;14.30;;;17.68;55.12;99491.09;5042625;28;20432;-69
2022/05/24 02:43:08;;;;;;;3.10;2.80;;;17.50;14.80;;;17.81;54.82;99482.25;5045167;28;20444;-69
2022/05/24 02:45:38;;;;;;;4.33;3.07;;;17.50;15.00;;;17.73;55.23;99482.84;5040470;28;20401;-69
2022/05/24 02:48:09;;;;;;;3.07;2.77;;;17.50;15.60;;;17.70;55.43;99497.09;5042503;28;20940;-68
2022/05/24 02:50:38;;;;;;;7.20;3.40;;;17.50;16.10;;;17.92;54.95;99484.91;5038874;28;20426;-67
2022/05/24 02:53:07;;;;;;;8.80;3.33;;;17.60;16.40;;;18.04;54.96;99488.94;5035790;28;20417;-68
2022/05/24 02:55:36;;;;;;;4.33;3.57;;;17.70;16.90;;;17.94;55.49;99490.94;5027392;28;20415;-69
2022/05/24 02:58:05;;;;;;;3.60;3.30;;;17.70;17.70;;;17.85;55.70;99489.91;5036112;28;20414;-68
2022/05/24 03:00:34;;;;;;;4.80;3.53;;;17.60;17.80;;;17.80;56.25;99491.56;5020188;28;20432;-69
2022/05/24 03:03:06;;;;;;;3.83;2.90;;;17.60;19.40;;;17.75;57.60;99490.78;5026322;28;20417;-69
2022/05/24 03:05:36;;;;;;;3.87;3.53;;;17.60;23.10;;;17.70;59.10;99490.81;5046604;28;20484;-69
2022/05/24 03:10:54;;;;;;;3.73;3.30;;;17.40;29.90;;;17.50;59.46;99483.50;5036456;28;21015;-69
2022/05/24 03:16:14;;;;;;;5.87;3.53;;;17.20;44.10;;;17.25;62.55;99486.34;5038740;28;20855;-69
2022/05/24 03:18:45;;;;;;;5.73;3.77;;;17.10;59.40;;;17.08;63.22;99494.09;5035155;28;20770;-69
2022/05/24 03:21:14;;;;;;;3.57;3.27;;;16.90;73.40;;;17.04;63.58;99487.53;5026742;28;20471;-69
2022/05/24 03:23:43;;;;;;;4.03;3.53;;;16.90;86.80;;;16.95;65.09;99495.47;5045309;28;20833;-69
2022/05/24 03:26:14;;;;;;;3.80;3.40;;;16.80;96.00;;;17.04;64.16;99498.47;5039452;28;20635;-69
2022/05/24 03:28:43;;;;;;;9.67;3.67;;;16.80;95.20;;;16.95;64.92;99496.28;5037642;28;20423;-69
2022/05/24 03:31:16;;;;;;;4.83;4.33;;;16.70;98.10;;;16.90;64.90;99495.47;5045187;28;20872;-69
2022/05/24 03:33:46;;;;;;;6.57;4.13;;;16.70;97.50;;;16.76;65.05;99495.25;5042115;28;20438;-70
2022/05/24 03:36:15;;;;;;;5.80;4.00;;;16.60;98.40;;;16.82;64.75;99499.59;5042738;28;20431;-70
2022/05/24 03:38:43;;;;;;;4.83;3.83;;;16.60;98.50;;;16.81;65.46;99497.97;5041175;28;20441;-70
2022/05/24 03:41:12;;;;;;;4.70;4.10;;;16.60;99.90;;;16.93;65.33;99500.41;5046389;28;20463;-69
2022/05/24 03:43:41;;;;;;;4.10;3.80;;;16.70;99.90;;;16.88;64.97;99505.88;5039366;28;21008;-70
2022/05/24 03:46:11;;;;;;;5.13;4.60;;;16.60;99.80;;;16.96;64.53;99505.31;5044405;28;20431;-69
2022/05/24 03:48:41;;;;;;;4.10;3.70;;;16.70;98.80;;;16.89;65.38;99502.84;5042434;28;20429;-69
2022/05/24 03:51:13;;;;;;;6.27;4.37;;;16.70;99.90;;;16.98;65.08;99507.78;5041583;28;20452;-69
2022/05/24 03:53:41;;;;;;;4.53;4.03;;;16.70;99.90;;;17.06;64.00;99504.47;5029198;28;20454;-69
2022/05/24 03:56:11;;;;;;;4.53;4.13;;;16.80;96.80;;;17.06;64.32;99510.75;5039716;28;20431;-69
2022/05/24 03:58:40;;;;;;;4.80;4.40;;;16.80;97.20;;;16.98;64.82;99507.78;5041559;28;20418;-69
2022/05/24 04:01:10;;;;;;;8.80;4.07;;;16.80;98.40;;;17.05;64.47;99513.75;5038538;28;20454;-69
2022/05/24 04:03:39;;;;;;;4.00;3.60;;;16.80;99.30;;;17.27;64.50;99512.31;5029323;28;20451;-69
2022/05/24 04:06:08;;;;;;;4.50;4.10;;;16.90;98.20;;;17.15;64.89;99520.00;5044103;28;20439;-69
2022/05/24 04:08:39;;;;;;;4.90;4.37;;;16.90;99.10;;;17.05;65.04;99521.94;5029974;28;20511;-70
2022/05/24 04:11:11;;;;;;;8.20;4.63;;;16.90;99.10;;;17.05;66.21;99521.94;5042137;28;20926;-70
2022/05/24 04:13:43;;;;;;;4.60;4.20;;;16.80;99.90;;;16.91;66.85;99530.72;5042160;28;20439;-71
2022/05/24 04:16:12;;;;;;;5.50;4.60;;;16.80;99.90;;;16.87;68.65;99526.91;5027019;28;20452;-71
2022/05/24 04:18:41;;;;;;;6.53;5.40;;;16.70;99.90;;;16.86;69.55;99536.22;5030791;28;20439;-70
2022/05/24 04:21:10;;;;;;;5.80;4.40;;;16.70;99.90;;;16.69;70.32;99530.22;5014208;28;20941;-70
2022/05/24 04:23:44;;;;;;;5.40;4.13;;;16.60;99.90;;;16.62;71.01;99543.34;5034599;28;20485;-70
2022/05/24 04:26:13;;;;;;;4.80;4.30;;;16.50;99.90;;;16.45;72.04;99543.59;5050922;28;20493;-68
2022/05/24 04:28:42;;;;;;;5.50;4.73;;;16.30;99.90;;;16.44;72.60;99546.59;5037355;28;20910;-69
2022/05/24 04:31:11;;;;;;;8.20;5.60;;;16.30;99.90;;;16.58;73.04;99544.97;5041188;28;20466;-70
2022/05/24 04:33:40;;;;;;;5.37;4.87;;;16.30;99.90;;;16.49;73.89;99554.78;5023218;28;20444;-70
2022/05/24 04:36:09;;;;;;;6.43;5.87;;;16.30;99.90;;;16.45;73.87;99554.53;5038885;28;20431;-70
2022/05/24 04:38:40;;;;;;;7.37;6.10;;;16.30;99.90;;;16.44;74.43;99552.06;5034233;28;21189;-70
2022/05/24 04:43:56;;;;;;;6.23;5.37;;;16.20;99.90;;;16.43;75.05;99551.22;5044027;28;20901;-70
2022/05/24 04:46:25;;;;;;;7.57;6.00;;;16.20;99.90;;;16.63;74.97;99566.81;5047832;28;20976;-70
2022/05/24 04:48:54;;;;;;;5.50;5.00;;;16.30;99.90;;;16.82;75.03;99567.91;5043422;28;20451;-69
2022/05/24 04:51:22;;;;;;;6.60;5.93;;;16.50;99.90;;;16.68;76.29;99568.75;5035476;28;20652;-71
2022/05/24 04:53:51;;;;;;;8.70;5.73;;;16.40;99.90;;;16.73;76.58;99566.81;5039987;28;20838;-72
2022/05/24 04:56:21;;;;;;;6.73;6.13;;;16.50;99.90;;;16.54;77.58;99579.38;5034110;28;20439;-68
2022/05/24 04:58:50;;;;;;;8.10;6.77;;;16.30;99.90;;;16.46;78.56;99577.16;5029200;28;20446;-69
2022/05/24 05:01:19;;;;;;;6.43;5.83;;;16.30;99.90;;;16.41;79.17;99577.19;5038947;28;20463;-71
2022/05/24 05:03:48;;;;;;;6.60;5.97;;;16.30;99.90;;;16.51;79.92;99591.63;5035696;28;20510;-69
2022/05/24 05:06:17;;;;;;;8.20;6.33;;;16.30;99.90;;;16.66;80.23;99596.31;5038221;28;20484;-69
2022/05/24 05:08:46;;;;;;;10.03;7.73;;;16.40;99.90;;;16.70;80.65;99604.81;5032281;28;20803;-70
2022/05/24 05:11:15;;;;;;;6.43;5.83;;;16.50;99.90;;;16.59;81.78;99605.88;5035179;28;20818;-70
2022/05/24 05:13:45;;;;;;;7.33;6.63;;;16.40;99.90;;;16.74;80.73;99606.72;5027311;28;20744;-70
2022/05/24 05:16:14;;;;;;;10.43;7.57;;;16.50;99.90;;;16.82;80.85;99611.63;5037262;28;20432;-70
2022/05/24 05:18:43;;;;;;;8.40;6.07;;;16.50;99.90;;;16.87;80.95;99614.34;5041759;28;20414;-70
2022/05/24 05:21:11;;;;;;;6.93;6.23;;;16.60;99.90;;;16.87;81.18;99628.00;5041638;28;20458;-69
2022/05/24 05:23:40;;;;;;;8.40;7.07;;;16.60;99.90;;;16.90;81.01;99616.53;5050879;28;20420;-69
2022/05/24 05:26:08;;;;;;;8.20;7.33;;;16.60;99.90;;;16.79;81.17;99623.09;5041192;28;20981;-70
2022/05/24 05:28:37;;;;;;;6.90;6.27;;;16.60;99.90;;;16.76;81.48;99625.53;5050659;28;20651;-70
2022/05/24 05:31:22;;;;;;;7.47;6.77;;;16.50;99.90;;;16.84;81.15;99630.47;5043787;28;20436;-70
2022/05/24 05:33:52;;;;;;;10.00;7.30;;;16.60;99.90;;;16.85;81.11;99641.13;5036993;28;20497;-69
2022/05/24 05:36:22;;;;;;;8.03;6.60;;;16.50;99.90;;;16.78;81.88;99640.59;5040832;28;20434;-68
2022/05/24 05:38:51;;;;;;;7.07;6.37;;;16.60;99.90;;;16.78;80.93;99643.31;5037002;28;20443;-68
2022/05/24 05:41:23;;;;;;;6.13;5.43;;;16.60;99.90;;;16.77;80.54;99644.41;5044369;28;20538;-70
2022/05/24 05:43:52;;;;;;;6.10;5.50;;;16.50;99.90;;;16.70;80.03;99649.31;5064736;23;20554;-73
2022/05/24 05:46:22;;;;;;;8.43;7.00;;;16.50;99.90;;;16.80;79.93;99654.78;5070805;28;20537;-73
2022/05/24 05:48:55;;;;;;;6.63;6.03;;;16.50;99.90;;;16.74;79.42;99666.81;5093629;28;20401;-73
2022/05/24 05:51:24;;;;;;;7.87;6.80;;;16.40;99.90;;;16.74;80.03;99677.75;5093476;28;20442;-73
2022/05/24 05:53:53;;;;;;;7.80;7.00;;;16.50;99.90;;;16.61;79.63;99672.78;5092872;28;20450;-74
2022/05/24 05:56:24;;;;;;;8.63;6.30;;;16.40;99.90;;;16.67;79.68;99666.25;5090036;28;20433;-73
2022/05/24 05:58:53;;;;;;;7.47;6.50;;;16.40;99.90;;;16.68;79.29;99667.88;5078132;23;20491;-74
2022/05/24 06:01:29;;;;;;;8.83;6.50;;;16.40;99.90;;;16.95;78.68;99665.72;5021743;28;20466;-69
2022/05/24 06:04:02;;;;;;;8.27;7.57;;;16.50;99.90;;;17.19;77.11;99671.44;5013696;28;20710;-69
2022/05/24 06:06:35;;;;;;;10.03;6.70;;;16.60;99.90;;;17.41;75.52;99673.88;5012289;28;20862;-69
2022/05/24 06:09:04;;;;;;;7.97;7.17;;;16.90;99.90;;;17.72;74.18;99677.38;5012296;28;20448;-72
2022/05/24 06:11:33;;;;;;;7.13;6.43;;;17.20;99.90;;;18.20;72.95;99689.53;5010560;28;20823;-69
2022/05/24 06:14:01;;;;;;;9.10;6.33;;;17.40;99.90;;;18.41;72.08;99684.72;5003984;28;20458;-69
2022/05/24 06:16:35;;;;;;;6.47;5.70;;;17.70;99.90;;;18.72;70.22;99678.00;5020674;28;20526;-70
2022/05/24 06:19:05;;;;;;;7.17;6.47;;;18.00;99.90;;;18.94;68.37;99691.25;5021846;28;20480;-68
2022/05/24 06:21:34;;;;;;;6.60;6.00;;;18.20;99.90;;;19.03;68.40;99686.78;5021300;28;20464;-70
2022/05/24 06:24:04;;;;;;;5.83;5.27;;;18.40;99.90;;;19.02;67.75;99687.91;5008532;28;20528;-71
2022/05/24 06:26:35;;;;;;;5.83;5.33;;;18.50;99.90;;;19.11;67.62;99697.16;5011668;28;20476;-70
2022/05/24 06:29:07;;;;;;;6.70;5.40;;;18.60;99.90;;;19.27;68.33;99697.81;5022620;28;20557;-69
2022/05/24 06:31:37;;;;;;;8.53;5.93;;;18.60;99.90;;;19.16;67.55;99708.09;5025734;28;20438;-70
2022/05/24 06:34:06;;;;;;;7.33;5.10;;;18.50;99.90;;;19.36;66.08;99712.59;5020632;28;20430;-71
2022/05/24 06:36:34;;;;;;;8.17;7.37;;;18.70;99.90;;;19.35;65.17;99722.72;5007333;28;20438;-69
2022/05/24 06:39:04;;;;;;;6.97;5.93;;;18.80;99.90;;;19.19;66.53;99717.66;5022015;28;20442;-72
2022/05/24 06:41:32;;;;;;;5.43;4.90;;;18.70;99.90;;;19.48;66.03;99721.25;5014723;28;20436;-71
2022/05/24 06:44:01;;;;;;;5.73;5.07;;;18.80;99.90;;;19.51;65.90;99716.00;5022879;28;20929;-71
2022/05/24 06:46:31;;;;;;;7.00;4.93;;;18.90;99.90;;;19.49;66.86;99717.41;5021104;28;20447;-69
2022/05/24 06:49:01;;;;;;;5.60;5.07;;;18.80;99.90;;;19.17;67.30;99726.16;5010438;28;20457;-71
2022/05/24 06:51:29;;;;;;;4.73;4.33;;;18.70;99.90;;;18.73;66.20;99726.22;5018284;28;20507;-71
2022/05/24 06:53:58;;;;;;;4.50;3.90;;;18.50;99.90;;;18.58;66.16;99735.38;5015698;28;20507;-69
2022/05/24 06:56:27;;;;;;;5.70;4.60;;;18.40;99.90;;;18.44;65.37;99742.53;5016589;28;20412;-71
2022/05/24 07:02:25;;;;;;;5.33;4.83;;;18.20;99.90;;;18.34;65.49;99736.28;5008341;28;20962;-71
2022/05/24 07:04:32;;;;;;;4.67;4.27;;;18.10;6.60;;;18.73;64.49;99748.16;5011617;28;20472;-71
2022/05/24 07:07:01;;;;;;;4.73;3.57;;;18.20;1.70;;;19.16;63.55;99745.66;5010573;28;20454;-71
2022/05/24 07:09:31;;;;;;;4.50;4.10;;;18.50;1.00;;;19.11;63.01;99749.25;5024798;28;20432;-71
2022/05/24 07:12:00;;;;;;;4.50;4.10;;;18.70;1.00;;;19.09;62.92;99752.28;5006242;28;20439;-71
2022/05/24 07:14:29;;;;;;;5.00;4.50;;;18.70;1.00;;;18.97;62.47;99757.31;5009226;28;20433;-70
2022/05/24 07:16:58;;;;;;;5.30;3.90;;;18.70;1.00;;;19.40;62.41;99769.31;5021076;28;20437;-71
2022/05/24 07:19:28;;;;;;;6.07;5.07;;;18.80;1.00;;;19.83;61.30;99772.25;5014950;28;20449;-70
2022/05/24 07:21:58;;;;;;;5.00;4.50;;;19.10;1.00;;;19.64;61.55;99769.41;5020073;28;20968;-70
2022/05/24 07:24:28;;;;;;;5.27;3.77;;;19.10;1.00;;;19.88;61.86;99774.94;5033222;28;20822;-71
2022/05/24 07:26:57;;;;;;;4.87;3.90;;;19.10;1.00;;;19.78;62.16;99772.28;5012221;28;20514;-72
2022/05/24 07:29:26;;;;;;;4.30;3.90;;;19.30;1.00;;;19.92;61.57;99779.56;5015103;28;20424;-72
2022/05/24 07:31:55;;;;;;;5.07;3.60;;;19.30;1.00;;;20.00;61.57;99777.28;5012252;28;20468;-70
2022/05/24 07:34:23;;;;;;;5.27;3.97;;;19.30;1.00;;;20.14;60.01;99776.28;5005370;28;20413;-72
2022/05/24 07:36:52;;;;;;;3.70;3.40;;;19.50;1.00;;;20.66;58.65;99785.59;5034601;28;20539;-72
2022/05/24 07:39:23;;;;;;;6.90;3.90;;;20.00;1.00;;;21.01;58.45;99781.53;5011278;28;20427;-70
2022/05/24 07:47:45;;;;;;;4.53;4.10;;;19.80;1.00;;;20.41;57.13;99805.13;5001722;28;20554;-69
2022/05/24 07:50:14;;;;;;;3.03;2.73;;;19.90;1.00;;;19.98;58.30;99806.97;5014302;28;20407;-71
2022/05/24 07:52:43;;;;;;;3.30;2.80;;;19.80;1.00;;;19.94;58.11;99806.72;5012684;28;20481;-71
2022/05/24 07:55:13;;;;;;;3.70;3.30;;;19.50;1.00;;;19.89;57.90;99821.34;5006148;28;20772;-71
2022/05/24 07:57:41;;;;;;;3.23;2.93;;;19.50;1.00;;;19.94;58.18;99817.72;5025753;28;20439;-72
2022/05/24 08:00:12;;;;;;;3.67;3.30;;;19.50;1.00;;;19.86;57.11;99818.31;5023699;28;20806;-70
2022/05/24 08:02:41;;;;;;;3.10;2.50;;;19.50;1.00;;;19.62;57.76;99814.69;5012569;28;20494;-69
2022/05/24 08:05:11;;;;;;;4.60;2.90;;;19.30;1.00;;;19.62;57.28;99817.44;5016096;28;20810;-71
2022/05/24 08:07:40;;;;;;;2.93;2.50;;;19.30;1.00;;;19.38;57.30;99815.41;5027657;28;20567;-72
2022/05/24 08:10:09;;;;;;;3.07;2.50;;;19.20;1.00;;;19.63;57.17;99816.34;5020050;28;20520;-70
2022/05/24 08:12:46;;;;;;;2.97;2.20;;;19.20;1.00;;;20.15;56.52;99824.63;5025901;28;20441;-72
2022/05/24 08:15:15;;;;;;;7.50;2.50;;;19.50;1.00;;;20.40;55.39;99826.28;5016758;28;20955;-70
2022/05/24 08:17:44;;;;;;;3.20;2.90;;;19.70;1.00;;;20.60;54.71;99831.56;5019962;28;20415;-72
2022/05/24 08:20:14;;;;;;;3.33;2.40;;;20.00;1.00;;;20.23;55.89;99837.72;5022473;28;20513;-70
2022/05/24 08:22:43;;;;;;;4.90;3.17;;;19.90;1.00;;;20.08;56.16;99840.63;5017065;28;20986;-70
2022/05/24 08:25:13;;;;;;;4.57;2.60;;;19.70;1.00;;;19.69;56.37;99848.97;5018269;28;20414;-71
2022/05/24 08:27:43;;;;;;;3.40;2.43;;;19.50;1.00;;;19.48;57.32;99858.44;5009474;28;20458;-71
2022/05/24 08:30:17;;;;;;;3.00;2.40;;;19.30;1.00;;;19.22;58.49;99855.00;5017982;28;20925;-70
2022/05/24 08:32:48;;;;;;;5.23;3.63;;;19.00;1.00;;;18.95;59.45;99860.94;5009403;28;20422;-71
2022/05/24 08:35:20;;;;;;;4.50;3.30;;;18.70;1.00;;;18.83;59.77;99865.13;5009340;28;20412;-72
2022/05/24 08:37:49;;;;;;;3.90;2.40;;;18.50;1.00;;;18.43;60.54;99866.06;5026220;28;20476;-71
2022/05/24 08:40:22;;;;;;;2.73;2.07;;;18.30;1.00;;;18.40;60.83;99870.16;5019037;28;20413;-70
2022/05/24 08:43:33;;;;;;;3.17;2.30;;;18.20;1.00;;;18.39;60.20;99874.03;5009552;28;20443;-70
2022/05/24 08:49:05;;;;;;;1.90;1.70;;;18.50;1.00;;;19.80;57.17;99882.63;5009793;28;20431;-69
2022/05/24 08:51:42;;;;;;;2.83;2.60;;;19.00;1.00;;;20.38;54.68;99878.78;5024556;28;20547;-71
2022/05/24 08:54:14;;;;;;;4.53;2.30;;;19.50;1.00;;;20.78;53.72;99876.69;5017034;28;21005;-71
2022/05/24 08:56:51;;;;;;;2.50;1.87;;;19.90;1.00;;;21.30;51.64;99877.69;5011006;28;20434;-72
2022/05/24 08:59:27;;;;;;;2.23;1.43;;;20.30;1.00;;;21.98;50.74;99873.28;5013596;28;20456;-70
2022/05/24 09:01:59;;;;;;;7.30;2.00;;;20.90;1.00;;;22.06;49.26;99885.56;5021844;28;20455;-70
2022/05/24 09:04:31;;;;;;;3.00;1.90;;;21.40;1.00;;;22.35;48.38;99880.63;5014661;28;20416;-70
2022/05/24 09:07:09;;;;;;;2.63;1.90;;;21.60;1.00;;;22.59;47.69;99876.84;5025727;28;20476;-70
2022/05/24 09:09:52;;;;;;;4.70;1.70;;;21.80;1.00;;;22.63;46.84;99883.38;5015277;28;20506;-70
2022/05/24 09:12:40;;;;;;;2.00;1.53;;;21.90;1.00;;;22.64;47.12;99880.34;5012323;28;20464;-71
2022/05/24 09:15:22;;;;;;;1.67;1.37;;;22.00;1.00;;;21.92;46.71;99890.19;5021365;28;20538;-72
2022/05/24 09:18:20;;;;;;;3.13;1.40;;;21.90;1.00;;;21.85;48.49;99893.31;5017191;28;20472;-71
2022/05/24 09:20:50;;;;;;;3.80;1.50;;;21.50;1.00;;;22.10;47.66;99895.69;5024302;28;20488;-71
2022/05/24 09:23:43;;;;;;;2.40;1.73;;;21.40;1.00;;;22.14;47.56;99893.13;5025146;28;20426;-71
2022/05/24 09:26:16;;;;;;;2.47;1.77;;;21.60;1.00;;;22.24;48.29;99894.88;5008715;28;20499;-70
2022/05/24 09:28:52;;;;;;;1.73;1.63;;;21.80;1.00;;;22.18;47.39;99896.09;5023078;28;20442;-72
2022/05/24 09:31:36;;;;;;;2.60;1.50;;;21.60;1.00;;;21.88;47.46;99895.47;5032945;28;21036;-72
2022/05/24 09:34:23;;;;;;;3.40;1.23;;;21.50;1.00;;;22.04;47.53;99899.63;5024663;28;20534;-70
2022/05/24 09:36:57;;;;;;;2.43;1.80;;;21.60;1.00;;;22.71;47.12;99902.00;5013982;28;20439;-70
2022/05/24 09:39:30;;;;;;;1.87;1.63;;;21.90;1.00;;;22.82;46.79;99906.19;5014436;28;20785;-70
2022/05/24 09:42:02;;;;;;;2.40;1.67;;;22.10;1.00;;;22.56;47.31;99905.84;5011959;28;20443;-71
2022/05/24 09:44:48;;;;;;;2.77;1.90;;;22.10;1.00;;;22.94;45.51;99901.81;5023083;28;20525;-70
2022/05/24 09:47:24;;;;;;;2.33;1.80;;;22.30;1.00;;;23.42;45.03;99894.97;5020173;28;20452;-70
2022/05/24 09:49:54;;;;;;;2.17;1.30;;;22.70;1.00;;;23.63;43.57;99891.44;5023364;28;20478;-70
2022/05/24 09:52:23;;;;;;;2.13;1.30;;;22.90;1.00;;;23.14;44.10;99897.00;5019156;28;20443;-70
2022/05/24 09:54:57;;;;;;;4.90;2.30;;;22.80;1.00;;;22.25;45.70;99900.09;5015730;28;20590;-70
2022/05/24 09:57:29;;;;;;;1.83;1.20;;;22.30;1.00;;;22.21;46.08;99903.75;5014166;28;20914;-71
2022/05/24 10:00:07;;;;;;;1.87;1.13;;;22.10;1.00;;;22.55;46.52;99901.47;5018279;28;21033;-70
2022/05/24 10:02:39;;;;;;;2.40;2.20;;;22.20;1.00;;;23.03;44.93;99901.91;5012370;28;20469;-71
2022/05/24 10:05:22;;;;;;;1.70;1.20;;;22.50;1.00;;;23.36;44.98;99908.06;5012520;28;20934;-71
2022/05/24 10:07:59;;;;;;;1.43;1.13;;;22.70;1.00;;;23.59;43.77;99906.19;5017467;28;20512;-72
2022/05/24 10:10:34;;;;;;;2.10;1.43;;;22.90;1.00;;;23.90;43.05;99893.28;5024027;28;20430;-72
2022/05/24 10:13:16;;;;;;;1.90;1.30;;;23.20;1.00;;;24.27;42.50;99911.44;5009529;28;20515;-70
2022/05/24 10:16:00;;;;;;;1.90;1.23;;;23.70;1.00;;;24.00;42.39;99911.56;5016895;28;20506;-70
2022/05/24 10:19:01;;;;;;;2.70;2.10;;;23.80;1.00;;;24.23;42.29;99910.44;5013752;28;20808;-70
2022/05/24 10:21:41;;;;;;;1.93;1.40;;;23.70;1.00;;;24.51;41.67;99911.88;5034594;28;20457;-71
2022/05/24 10:24:30;;;;;;;3.20;2.17;;;23.80;1.00;;;24.21;42.41;99905.22;5018329;28;20522;-69
2022/05/24 10:27:13;;;;;;;3.57;2.00;;;23.80;1.00;;;24.28;43.04;99907.53;5000134;28;20915;-71
2022/05/24 10:29:55;;;;;;;4.27;2.03;;;23.90;1.00;;;23.59;42.45;99907.00;5023073;28;20929;-71
2022/05/24 10:39:04;;;;;;;2.20;1.63;;;22.80;1.00;;;22.60;44.68;99901.38;5009360;28;20830;-70
2022/05/24 10:41:50;;;;;;;1.90;1.30;;;22.50;1.00;;;22.31;45.67;99904.41;5016110;28;20929;-71
2022/05/24 10:44:26;;;;;;;3.77;1.17;;;22.20;1.00;;;22.91;44.55;99902.41;5005450;28;20426;-71
2022/05/24 10:47:06;;;;;;;1.80;1.20;;;22.40;1.00;;;23.21;44.24;99912.00;5011279;28;20450;-69
2022/05/24 10:49:47;;;;;;;2.83;1.60;;;22.70;1.00;;;23.01;44.50;99906.91;5003716;28;20495;-70
2022/05/24 10:52:29;;;;;;;1.80;1.27;;;22.70;1.00;;;23.00;45.04;99907.19;5021673;28;20547;-72
2022/05/24 10:55:08;;;;;;;1.57;1.20;;;22.60;1.00;;;23.41;44.54;99910.72;5024029;28;20818;-72
2022/05/24 10:57:43;;;;;;;2.23;1.93;;;22.80;1.00;;;23.41;43.07;99905.19;5023776;28;20518;-70
2022/05/24 11:00:18;;;;;;;2.70;1.77;;;23.00;1.00;;;23.64;43.24;99904.13;5019301;28;21066;-70
2022/05/24 11:02:58;;;;;;;6.80;6.20;;;23.10;1.00;;;24.06;43.13;99902.00;5015060;28;20890;-69
2022/05/24 11:05:32;;;;;;;1.80;1.30;;;23.30;1.00;;;24.24;42.07;99901.00;5011965;28;20436;-70
2022/05/24 11:08:32;;;;;;;2.20;1.33;;;23.80;1.00;;;24.58;42.28;99912.25;5016081;28;20823;-69
2022/05/24 11:11:16;;;;;;;4.93;2.33;;;23.90;1.00;;;25.15;40.25;99901.22;5005955;28;20546;-70
2022/05/24 11:13:55;;;;;;;2.67;1.50;;;24.30;1.00;;;24.80;40.59;99907.75;5013496;28;20967;-72
2022/05/24 11:16:39;;;;;;;1.50;1.27;;;24.30;1.00;;;24.53;39.63;99897.75;5009876;28;20448;-71
2022/05/24 11:19:13;;;;;;;2.03;1.40;;;24.10;1.00;;;24.42;40.44;99899.97;5013493;28;20796;-71